Terminal Aerodrome Forecast
Issued by NWS

Home | Current Version | Previous Version | Text Only | Print | Product List | Glossary On
Versions: 1 2 3 4 5 6 7 8 9 10 11 12 13 14 15 16 17 18 19 20 21 22 23 24 25 26 27 28 29 30 31 32 33 34 35 36 37 38 39
000
FTUS43 KGRB 210500
TAFRHI
TAF
KRHI 210520Z 2106/2206 01005KT 5SM -RA BR SCT012 OVC020
      TEMPO 2108/2112 3SM RA BKN006 OVC012
     FM211400 01009KT P6SM BKN015 BKN035
     FM211700 34008KT P6SM BKN025
     FM212000 34006KT P6SM SCT035
     FM212300 32003KT P6SM SKC=

USA.gov is the U.S. government's official web portal to all federal, state and local government web resources and services.